Time;durP1;ratioP1;P1;durP2;ratioP2;P2;SDS_P1;SDS_P2;PMS_P1;PMS_P2;Temp;Humidity;BMP_temperature;BMP_pressure;BME280_temperature;BME280_humidity;BME280_pressure;Samples;Min_cycle;Max_cycle;Signal;HPM_P1;HPM_P2
2022/04/22 00:02:09;;;;;;;2.70;0.93;;;;;;;-140.72;100.00;52403.03;5106852;28;20039;-69
2022/04/22 00:04:34;;;;;;;3.17;1.10;;;;;;;-140.72;100.00;52439.56;5082926;28;20028;-69
2022/04/22 00:06:59;;;;;;;2.85;1.73;;;;;;;-140.72;100.00;52439.56;5093577;28;20050;-69
2022/04/22 00:09:25;;;;;;;2.33;1.20;;;;;;;-140.72;100.00;52388.84;5035662;28;20475;-71
2022/04/22 00:11:50;;;;;;;2.50;1.50;;;;;;;-140.72;100.00;52388.84;5008041;28;20056;-69
2022/04/22 00:14:16;;;;;;;1.80;1.20;;;;;;;-140.72;100.00;52425.34;5007709;28;20072;-69
2022/04/22 00:16:41;;;;;;;3.33;1.25;;;;;;;-140.72;100.00;52409.13;5007683;28;20026;-69
2022/04/22 00:19:06;;;;;;;2.13;1.63;;;;;;;-140.72;100.00;52431.44;5014368;28;20079;-69
2022/04/22 00:21:32;;;;;;;2.65;1.20;;;;;;;-140.72;100.00;52370.56;5006691;28;20030;-69
2022/04/22 00:23:57;;;;;;;1.27;0.98;;;;;;;-140.72;100.00;52431.44;5008605;28;20099;-69
2022/04/22 00:26:23;;;;;;;1.70;0.95;;;;;;;-140.72;100.00;52427.38;5008325;28;20038;-68
2022/04/22 00:28:48;;;;;;;1.52;1.20;;;;;;;-140.72;100.00;52374.63;5007253;28;20045;-69
2022/04/22 00:31:15;;;;;;;2.33;0.88;;;;;;;-140.72;100.00;52419.28;5008212;28;20030;-69
2022/04/22 00:33:41;;;;;;;2.05;1.60;;;;;;;-140.72;100.00;52396.94;5007707;28;20506;-68
2022/04/22 00:36:07;;;;;;;1.08;0.85;;;;;;;-140.72;100.00;52437.53;5007424;28;20464;-68
2022/04/22 00:38:34;;;;;;;2.90;1.35;;;;;;;-140.72;100.00;52425.34;5007822;28;20108;-69
2022/04/22 00:40:59;;;;;;;1.98;1.35;;;;;;;-140.72;100.00;52437.53;5008177;28;20026;-69
2022/04/22 00:43:25;;;;;;;1.60;0.75;;;;;;;-140.72;100.00;52429.41;5007194;28;20534;-68
2022/04/22 00:45:53;;;;;;;0.80;0.77;;;;;;;-140.72;100.00;52431.44;4989980;28;20033;-68
2022/04/22 00:48:20;;;;;;;3.13;1.52;;;;;;;-140.72;100.00;52413.19;5007840;28;20038;-69
2022/04/22 00:50:46;;;;;;;1.00;0.70;;;;;;;-140.72;100.00;52401.00;5007047;28;20054;-68
2022/04/22 00:53:13;;;;;;;1.88;1.05;;;;;;;-140.72;100.00;52457.81;5007699;28;20042;-69
2022/04/22 00:55:47;;;;;;;1.58;1.20;;;;;;;-140.72;100.00;52427.38;5007410;28;20041;-68
2022/04/22 00:58:13;;;;;;;2.10;1.00;;;;;;;-140.72;100.00;52398.97;5007904;28;20038;-69
2022/04/22 01:00:39;;;;;;;3.40;1.20;;;;;;;-140.72;100.00;52390.84;5005301;28;20050;-69
2022/04/22 01:03:08;;;;;;;2.47;1.42;;;;;;;-140.72;100.00;52443.63;5022587;28;20034;-68
2022/04/22 01:11:02;;;;;;;1.00;0.80;;;;;;;-140.72;100.00;52439.56;5090355;28;20043;-68
2022/04/22 01:13:28;;;;;;;1.02;0.50;;;;;;;-140.72;100.00;52401.00;5090604;28;20027;-69
2022/04/22 01:15:54;;;;;;;2.45;1.13;;;;;;;-140.72;100.00;52465.94;5090878;28;20024;-69
2022/04/22 01:18:20;;;;;;;1.92;0.70;;;;;;;-140.72;100.00;52407.09;5009254;28;20026;-70
2022/04/22 01:20:45;;;;;;;5.22;1.48;;;;;;;-140.72;100.00;52433.47;4988060;28;20036;-69
2022/04/22 01:23:11;;;;;;;1.88;0.88;;;;;;;-140.72;100.00;52451.72;4987969;28;20049;-69
2022/04/22 01:25:36;;;;;;;1.20;0.75;;;;;;;-140.72;100.00;52437.53;4986807;28;20038;-69
2022/04/22 01:28:03;;;;;;;1.60;0.88;;;;;;;-140.72;100.00;52439.56;4987904;28;20054;-70
2022/04/22 01:30:28;;;;;;;1.55;1.25;;;;;;;-140.72;100.00;52449.72;4987589;28;20053;-69
2022/04/22 01:32:56;;;;;;;0.73;0.52;;;;;;;-140.72;100.00;52449.72;4986740;28;20468;-69
2022/04/22 01:35:22;;;;;;;2.72;1.45;;;;;;;-140.72;100.00;52394.91;4987456;28;20427;-69
2022/04/22 01:37:47;;;;;;;1.73;0.95;;;;;;;-140.72;100.00;52398.97;4987188;28;20042;-70
2022/04/22 01:40:14;;;;;;;2.05;1.27;;;;;;;-140.72;100.00;52427.38;4986601;28;20407;-69
2022/04/22 01:42:40;;;;;;;1.13;1.02;;;;;;;-140.72;100.00;52459.84;5054233;28;20069;-69
2022/04/22 01:45:07;;;;;;;3.08;1.60;;;;;;;-140.72;100.00;52423.31;4986486;28;20069;-70
2022/04/22 01:47:33;;;;;;;2.33;1.60;;;;;;;-140.72;100.00;52415.22;4987066;28;20053;-69
2022/04/22 01:49:58;;;;;;;1.83;1.23;;;;;;;-140.72;100.00;52451.72;4987107;28;20105;-69
2022/04/22 01:52:24;;;;;;;1.52;0.98;;;;;;;-140.72;100.00;52449.72;4986649;28;20104;-69
2022/04/22 01:54:51;;;;;;;1.33;0.98;;;;;;;-140.72;100.00;52447.69;4987440;28;20438;-69
2022/04/22 01:57:19;;;;;;;2.92;1.77;;;;;;;-140.72;100.00;52459.84;4987402;28;20042;-69
2022/04/22 01:59:46;;;;;;;1.50;0.98;;;;;;;-140.72;100.00;52419.28;4986282;28;20049;-69
2022/04/22 02:02:12;;;;;;;1.45;1.10;;;;;;;-140.72;100.00;52463.91;4987194;28;20081;-69
2022/04/22 02:04:38;;;;;;;5.05;1.70;;;;;;;-140.72;100.00;52435.50;4987458;28;20480;-69
2022/04/22 02:07:03;;;;;;;1.65;1.48;;;;;;;-140.72;100.00;52472.03;4986514;28;20419;-69
2022/04/22 02:09:29;;;;;;;3.20;1.42;;;;;;;-140.72;100.00;52486.22;4986900;28;20125;-68
2022/04/22 02:11:56;;;;;;;3.13;1.48;;;;;;;-140.72;100.00;52398.97;4987011;28;20060;-69
2022/04/22 02:14:22;;;;;;;4.38;1.95;;;;;;;-140.72;100.00;52455.78;4986188;28;20495;-69
2022/04/22 02:16:47;;;;;;;0.93;0.70;;;;;;;-140.72;100.00;52407.09;4986562;28;20038;-68
2022/04/22 02:19:12;;;;;;;1.73;1.33;;;;;;;-140.72;100.00;52451.72;4986773;28;20022;-68
2022/04/22 02:21:38;;;;;;;1.55;0.82;;;;;;;-140.72;100.00;52470.00;4986158;28;20034;-69
2022/04/22 02:24:03;;;;;;;2.65;1.35;;;;;;;-140.72;100.00;52455.78;4986899;28;20427;-69
2022/04/22 02:26:29;;;;;;;3.22;1.00;;;;;;;-140.72;100.00;52439.56;4986495;28;20483;-68
2022/04/22 02:28:54;;;;;;;2.75;1.30;;;;;;;-140.72;100.00;52427.38;4986253;28;20468;-69
2022/04/22 02:31:20;;;;;;;1.73;1.00;;;;;;;-140.72;100.00;52447.69;4989922;28;20049;-68
2022/04/22 02:33:46;;;;;;;1.02;0.93;;;;;;;-140.72;100.00;52459.84;5012486;28;20477;-68
2022/04/22 02:36:11;;;;;;;2.53;2.33;;;;;;;-140.72;100.00;52433.47;5091680;28;20024;-69
2022/04/22 02:38:37;;;;;;;1.95;1.33;;;;;;;-140.72;100.00;52472.03;5067946;28;20026;-68
2022/04/22 02:46:33;;;;;;;1.38;1.27;;;;;;;-140.72;100.00;52472.03;5092712;28;20047;-68
2022/04/22 02:49:00;;;;;;;4.28;1.55;;;;;;;-140.72;100.00;52484.19;5091709;28;20032;-68
2022/04/22 02:51:26;;;;;;;1.77;1.17;;;;;;;-140.72;100.00;52411.16;5092660;28;20528;-69
2022/04/22 02:53:52;;;;;;;1.77;1.23;;;;;;;-140.72;100.00;52476.09;5092754;28;20028;-68
2022/04/22 02:56:21;;;;;;;2.67;0.95;;;;;;;-140.72;100.00;52445.66;5091881;28;20024;-69
2022/04/22 02:58:48;;;;;;;1.17;1.08;;;;;;;-140.72;100.00;52472.03;4990512;28;20053;-70
2022/04/22 03:01:17;;;;;;;0.98;0.75;;;;;;;-140.72;100.00;52455.78;5006993;28;20387;-69
2022/04/22 03:03:44;;;;;;;1.58;0.85;;;;;;;-140.72;100.00;52449.72;5028008;28;20090;-68
2022/04/22 03:06:09;;;;;;;1.90;1.67;;;;;;;-140.72;100.00;52439.56;5028977;28;20496;-69
2022/04/22 03:08:35;;;;;;;1.05;0.80;;;;;;;-140.72;100.00;52482.16;5021413;28;20062;-69
2022/04/22 03:11:00;;;;;;;2.08;1.13;;;;;;;-140.72;100.00;52447.69;5008413;28;20105;-69
2022/04/22 03:13:26;;;;;;;2.65;1.00;;;;;;;-140.72;100.00;52457.81;5009296;28;20092;-69
2022/04/22 03:15:52;;;;;;;2.08;1.05;;;;;;;-140.72;100.00;52423.31;5009011;28;20387;-69
2022/04/22 03:18:19;;;;;;;2.42;0.90;;;;;;;-140.72;100.00;52476.09;5008569;28;20179;-69
2022/04/22 03:20:44;;;;;;;2.83;0.70;;;;;;;-140.72;100.00;52470.00;5009041;28;20038;-68
2022/04/22 03:23:10;;;;;;;2.13;1.40;;;;;;;-140.72;100.00;52443.63;4991302;28;20183;-68
2022/04/22 03:25:35;;;;;;;1.70;1.25;;;;;;;-140.72;100.00;52476.09;5007926;28;20116;-69
2022/04/22 03:28:03;;;;;;;2.33;1.08;;;;;;;-140.72;100.00;52451.72;5009299;28;20113;-69
2022/04/22 03:30:28;;;;;;;1.83;0.98;;;;;;;-140.72;100.00;52443.63;5008087;28;20164;-68
2022/04/22 03:32:54;;;;;;;1.58;1.20;;;;;;;-140.72;100.00;52492.31;5009491;28;20117;-69
2022/04/22 03:35:19;;;;;;;1.67;0.98;;;;;;;-140.72;100.00;52463.91;5009133;28;20403;-69
2022/04/22 03:37:45;;;;;;;2.88;1.20;;;;;;;-140.72;100.00;52490.28;5008132;28;20440;-69
2022/04/22 03:40:10;;;;;;;1.15;1.05;;;;;;;-140.72;100.00;52474.06;5008166;28;20029;-68
2022/04/22 03:42:37;;;;;;;2.53;2.08;;;;;;;-140.72;100.00;52492.31;5008708;28;20038;-69
2022/04/22 03:45:03;;;;;;;1.13;0.90;;;;;;;-140.72;100.00;52486.22;5008248;28;20109;-68
2022/04/22 03:47:29;;;;;;;2.03;0.95;;;;;;;-140.72;100.00;52470.00;5008092;28;20030;-69
2022/04/22 03:49:54;;;;;;;1.30;0.82;;;;;;;-140.72;100.00;52472.03;5008812;28;20033;-70
2022/04/22 03:52:19;;;;;;;1.92;1.65;;;;;;;-140.72;100.00;52488.25;5032669;28;20736;-68
2022/04/22 03:54:45;;;;;;;0.73;0.52;;;;;;;-140.72;100.00;52472.03;5033280;28;20062;-69
2022/04/22 03:59:54;;;;;;;2.13;1.23;;;;;;;-140.72;100.00;52476.09;5089167;28;20070;-69
2022/04/22 04:02:20;;;;;;;1.25;0.65;;;;;;;-140.72;100.00;52514.63;5112212;28;20075;-69
2022/04/22 04:04:45;;;;;;;1.65;1.15;;;;;;;-140.72;100.00;52455.78;5011151;28;20042;-69
2022/04/22 04:07:11;;;;;;;1.70;1.20;;;;;;;-140.72;100.00;52478.13;5008547;28;20033;-69
2022/04/22 04:17:48;;;;;;;0.82;0.65;;;;;;;-140.72;100.00;52492.31;5008631;28;20064;-68
2022/04/22 04:23:16;;;;;;;2.80;1.08;;;;;;;-140.72;100.00;52453.75;5008773;28;20053;-68
2022/04/22 04:25:47;;;;;;;1.85;1.20;;;;;;;-140.72;100.00;52474.06;5007827;28;20053;-70
2022/04/22 04:28:14;;;;;;;2.70;2.20;;;;;;;-140.72;100.00;52488.25;5008049;28;20269;-68
2022/04/22 04:30:41;;;;;;;1.85;1.08;;;;;;;-140.72;100.00;52488.25;5001083;28;20503;-68
2022/04/22 04:33:08;;;;;;;2.05;1.58;;;;;;;-140.72;100.00;52478.13;4988679;28;20083;-69
2022/04/22 04:35:35;;;;;;;0.95;0.85;;;;;;;-140.72;100.00;52504.50;4987734;28;20045;-69
2022/04/22 04:38:01;;;;;;;3.45;2.05;;;;;;;-140.72;100.00;52478.13;4985646;28;20040;-67
2022/04/22 04:40:27;;;;;;;3.58;1.63;;;;;;;-140.72;100.00;52498.41;5006704;28;20033;-69
2022/04/22 04:42:53;;;;;;;1.27;0.95;;;;;;;-140.72;100.00;52453.75;4986457;28;20066;-67
2022/04/22 04:45:19;;;;;;;1.38;1.20;;;;;;;-140.72;100.00;52494.34;4988091;28;20395;-70
2022/04/22 04:47:44;;;;;;;2.17;1.73;;;;;;;-140.72;100.00;52453.75;4971678;28;20088;-68
2022/04/22 04:50:11;;;;;;;1.73;1.25;;;;;;;-140.72;100.00;52461.88;5007680;28;20308;-67
2022/04/22 04:52:37;;;;;;;1.95;1.80;;;;;;;-140.72;100.00;52482.16;5007847;28;20042;-68
2022/04/22 04:55:07;;;;;;;5.40;1.80;;;;;;;-140.72;100.00;52459.84;5009172;28;20053;-69
2022/04/22 04:57:32;;;;;;;4.75;1.98;;;;;;;-140.72;100.00;52472.03;5037846;28;20020;-69
2022/04/22 04:59:58;;;;;;;3.05;1.42;;;;;;;-140.72;100.00;52447.69;5110476;28;20047;-70
2022/04/22 05:02:23;;;;;;;2.50;1.27;;;;;;;-140.72;100.00;52492.31;5039173;28;20107;-69
2022/04/22 05:04:48;;;;;;;2.33;1.30;;;;;;;-140.72;100.00;52459.84;4986531;28;20026;-68
2022/04/22 05:07:14;;;;;;;2.22;1.10;;;;;;;-140.72;100.00;52449.72;5007449;28;20030;-68
2022/04/22 05:09:39;;;;;;;2.55;1.35;;;;;;;-140.72;100.00;52465.94;4997007;28;20029;-70
2022/04/22 05:12:05;;;;;;;1.80;1.05;;;;;;;-140.72;100.00;52398.97;5006866;28;20044;-71
2022/04/22 05:14:30;;;;;;;2.13;1.55;;;;;;;-140.72;100.00;52425.34;5006697;28;20022;-68
2022/04/22 05:16:56;;;;;;;2.20;1.70;;;;;;;-140.72;100.00;52465.94;5007742;28;20113;-68
2022/04/22 05:19:22;;;;;;;1.40;0.55;;;;;;;-140.72;100.00;52484.19;5007828;28;20030;-69
2022/04/22 05:21:49;;;;;;;2.08;1.58;;;;;;;-140.72;100.00;52463.91;5017872;28;20154;-69
2022/04/22 05:24:14;;;;;;;3.75;2.60;;;;;;;-140.72;100.00;52488.25;5017023;28;20034;-69
2022/04/22 05:26:40;;;;;;;1.88;1.38;;;;;;;-140.72;100.00;52455.78;5005539;28;20034;-69
2022/04/22 05:32:36;;;;;;;2.35;1.35;;;;;;;-140.72;100.00;52439.56;5052571;28;20087;-71
2022/04/22 05:34:34;;;;;;;3.20;1.75;;;;;;;-140.72;100.00;52443.63;5004574;28;20140;-70
2022/04/22 05:37:00;;;;;;;5.50;1.95;;;;;;;-140.72;100.00;52431.44;5006087;28;20101;-69
2022/04/22 05:39:25;;;;;;;1.88;1.30;;;;;;;-140.72;100.00;52492.31;5007238;28;20026;-69
2022/04/22 05:41:51;;;;;;;1.70;1.13;;;;;;;-140.72;100.00;52482.16;5007250;28;20034;-68
2022/04/22 05:44:16;;;;;;;3.60;1.45;;;;;;;-140.72;100.00;52467.97;5031221;28;20030;-68
2022/04/22 05:46:41;;;;;;;2.33;1.73;;;;;;;-140.72;100.00;52433.47;4998663;28;20510;-68
2022/04/22 05:49:07;;;;;;;1.67;1.10;;;;;;;-140.72;100.00;52488.25;5002469;28;20349;-69
2022/04/22 05:51:32;;;;;;;2.08;1.40;;;;;;;-140.72;100.00;52459.84;5005511;28;20045;-68
2022/04/22 05:53:57;;;;;;;1.60;1.35;;;;;;;-140.72;100.00;52447.69;5006497;28;20113;-69
2022/04/22 05:56:23;;;;;;;1.70;0.70;;;;;;;-140.72;100.00;52451.72;5006381;28;20565;-68
2022/04/22 05:58:48;;;;;;;2.72;1.83;;;;;;;-140.72;100.00;52492.31;5005976;28;20026;-68
2022/04/22 06:01:15;;;;;;;1.40;1.13;;;;;;;-140.72;100.00;52463.91;5007016;28;20074;-70
2022/04/22 06:03:40;;;;;;;2.25;1.67;;;;;;;-140.72;100.00;52447.69;5007949;28;20034;-68
2022/04/22 06:06:06;;;;;;;2.35;1.48;;;;;;;-140.72;100.00;52439.56;5009431;28;20095;-68
2022/04/22 06:11:15;;;;;;;3.83;2.10;;;;;;;-140.72;100.00;52445.66;5010815;28;20041;-68
2022/04/22 06:13:41;;;;;;;2.38;1.20;;;;;;;-140.72;100.00;52427.38;5009996;28;20029;-69
2022/04/22 06:16:06;;;;;;;3.50;2.70;;;;;;;-140.72;100.00;52417.25;5010784;28;20098;-69
2022/04/22 06:18:32;;;;;;;2.58;1.15;;;;;;;-140.72;100.00;52496.38;5010319;28;20386;-69
2022/04/22 06:20:57;;;;;;;1.95;1.77;;;;;;;-140.72;100.00;52447.69;5009846;28;20030;-68
2022/04/22 06:23:22;;;;;;;2.72;1.63;;;;;;;-140.72;100.00;52435.50;5010356;28;20045;-69
2022/04/22 06:25:48;;;;;;;1.88;1.20;;;;;;;-140.72;100.00;52463.91;5010163;28;20030;-69
2022/04/22 06:28:13;;;;;;;2.20;1.30;;;;;;;-140.72;100.00;52443.63;5010120;28;20037;-68
2022/04/22 06:30:40;;;;;;;4.32;1.52;;;;;;;-140.72;100.00;52447.69;5005417;28;20091;-69
2022/04/22 06:33:06;;;;;;;3.38;2.08;;;;;;;-140.72;100.00;52453.75;5006805;28;20083;-68
2022/04/22 06:35:32;;;;;;;1.58;1.25;;;;;;;-140.72;100.00;52476.09;5007948;28;20041;-70
2022/04/22 06:38:00;;;;;;;3.60;2.13;;;;;;;-140.72;100.00;52447.69;5009999;28;20105;-70
2022/04/22 06:45:55;;;;;;;2.08;1.10;;;;;;;-140.72;100.00;52451.72;5010373;28;20087;-69
2022/04/22 06:48:30;;;;;;;5.55;2.20;;;;;;;-140.72;100.00;52455.78;5003641;28;20030;-69
2022/04/22 06:50:57;;;;;;;4.55;1.92;;;;;;;-140.72;100.00;52461.88;4990385;28;20433;-68
2022/04/22 06:53:23;;;;;;;3.28;1.40;;;;;;;-140.72;100.00;52443.63;4990759;28;20038;-70
2022/04/22 06:55:50;;;;;;;2.28;1.52;;;;;;;-140.72;100.00;52439.56;5006849;28;20064;-69
2022/04/22 06:58:18;;;;;;;2.45;1.55;;;;;;;-140.72;100.00;52439.56;5009961;28;20082;-70
2022/04/22 07:00:45;;;;;;;5.07;2.08;;;;;;;-140.72;100.00;52463.91;5009530;28;20476;-68
2022/04/22 07:03:12;;;;;;;3.22;1.63;;;;;;;-140.72;100.00;52437.53;5008449;28;20079;-70
2022/04/22 07:05:39;;;;;;;2.70;2.50;;;;;;;-140.72;100.00;52435.50;4989997;28;20030;-69
2022/04/22 07:08:13;;;;;;;2.15;1.95;;;;;;;-140.72;100.00;52453.75;4990593;28;20034;-70
2022/04/22 07:10:41;;;;;;;2.45;1.90;;;;;;;-140.72;100.00;52439.56;4989848;28;20034;-69
2022/04/22 07:13:06;;;;;;;4.40;1.98;;;;;;;-140.72;100.00;52435.50;5004070;28;20041;-69
2022/04/22 07:15:32;;;;;;;2.30;1.83;;;;;;;-140.72;100.00;52437.53;5008301;28;20447;-69
2022/04/22 07:17:57;;;;;;;2.05;1.20;;;;;;;-140.72;100.00;52423.31;5009838;28;20171;-68
2022/04/22 07:20:24;;;;;;;4.18;2.28;;;;;;;-140.72;100.00;52451.72;5009024;28;20038;-70
2022/04/22 07:22:50;;;;;;;2.28;1.63;;;;;;;-140.72;100.00;52467.97;5008675;28;20491;-70
2022/04/22 07:25:17;;;;;;;6.40;2.22;;;;;;;-140.72;100.00;52419.28;5009443;28;20033;-69
2022/04/22 07:27:44;;;;;;;2.70;2.28;;;;;;;-140.72;100.00;52407.09;5009125;28;20033;-70
2022/04/22 07:30:14;;;;;;;4.53;2.15;;;;;;;-140.72;100.00;52423.31;5007269;28;20033;-69
2022/04/22 07:32:39;;;;;;;;;;;;;;;-140.72;100.00;52435.50;5009774;28;20480;-69
2022/04/22 07:35:08;;;;;;;2.67;1.92;;;;;;;-140.72;100.00;52403.03;5009413;28;19937;-70
2022/04/22 07:37:35;;;;;;;2.70;1.88;;;;;;;-140.72;100.00;52437.53;5008657;28;20052;-71
2022/04/22 07:40:01;;;;;;;4.95;3.00;;;;;;;-140.72;100.00;52415.22;5008747;28;20037;-69
2022/04/22 07:42:29;;;;;;;3.75;1.95;;;;;;;-140.72;100.00;52431.44;5004689;28;20049;-70
2022/04/22 07:47:44;;;;;;;3.35;2.42;;;;;;;-140.72;100.00;52447.69;5047413;28;20061;-69
2022/04/22 07:50:10;;;;;;;3.47;2.58;;;;;;;-140.72;100.00;52419.28;5071712;28;20055;-69
2022/04/22 07:52:39;;;;;;;2.90;2.22;;;;;;;-140.72;100.00;52401.00;5046413;28;20065;-68
2022/04/22 07:55:04;;;;;;;3.22;1.90;;;;;;;-140.72;100.00;52403.03;5026174;28;20030;-70
2022/04/22 07:57:30;;;;;;;4.90;3.17;;;;;;;-140.72;100.00;52435.50;5008135;28;20372;-70
2022/04/22 07:59:56;;;;;;;3.55;1.83;;;;;;;-140.72;100.00;52384.78;5005680;28;20109;-70
2022/04/22 08:02:22;;;;;;;2.28;2.08;;;;;;;-140.72;100.00;52388.84;5042470;28;20511;-71
2022/04/22 08:04:48;;;;;;;4.50;3.28;;;;;;;-140.72;100.00;52386.81;5054098;28;20123;-69
2022/04/22 08:07:15;;;;;;;3.17;2.15;;;;;;;-140.72;100.00;52378.69;5068326;28;20032;-69
2022/04/22 08:09:40;;;;;;;5.65;2.78;;;;;;;-140.72;100.00;52366.50;5053824;28;20026;-69
2022/04/22 08:12:07;;;;;;;5.10;2.80;;;;;;;-140.72;100.00;52411.16;5011414;28;20030;-71
2022/04/22 08:14:33;;;;;;;3.10;1.98;;;;;;;-140.72;100.00;52386.81;5042026;28;20068;-71
2022/04/22 08:17:00;;;;;;;5.80;2.45;;;;;;;-140.72;100.00;52350.28;5046231;28;20019;-69
2022/04/22 08:19:25;;;;;;;3.83;2.25;;;;;;;-140.72;100.00;52362.44;5018090;28;20041;-69
2022/04/22 08:21:50;;;;;;;2.63;1.73;;;;;;;-140.72;100.00;52350.28;5064468;28;20315;-71
2022/04/22 08:24:16;;;;;;;2.35;1.75;;;;;;;-140.72;100.00;52380.72;5046265;28;20061;-69
2022/04/22 08:26:41;;;;;;;3.58;2.30;;;;;;;-140.72;100.00;52344.19;5039606;28;20037;-69
2022/04/22 08:29:06;;;;;;;4.13;2.60;;;;;;;-140.72;100.00;52315.78;5024401;28;20363;-68
2022/04/22 08:31:32;;;;;;;6.40;2.47;;;;;;;-140.72;100.00;52344.19;5075379;28;20028;-69
2022/04/22 08:33:57;;;;;;;3.35;1.92;;;;;;;-140.72;100.00;52378.69;5059632;28;20121;-67
2022/04/22 08:36:32;;;;;;;4.50;2.53;;;;;;;-140.72;100.00;52323.91;5069575;28;20036;-70
2022/04/22 08:38:58;;;;;;;3.67;2.33;;;;;;;-140.72;100.00;52313.75;5053113;28;20025;-68
2022/04/22 08:41:23;;;;;;;5.75;2.17;;;;;;;-140.72;100.00;52315.78;5036114;28;20084;-68
2022/04/22 08:43:56;;;;;;;4.10;2.85;;;;;;;-140.72;100.00;52279.25;5047880;28;20029;-68
2022/04/22 08:51:51;;;;;;;4.43;2.28;;;;;;;-140.72;100.00;52321.88;5079576;28;20088;-69
2022/04/22 08:54:18;;;;;;;7.38;4.00;;;;;;;-140.72;100.00;52273.19;5052112;28;20376;-69
2022/04/22 08:56:44;;;;;;;5.43;1.90;;;;;;;-140.72;100.00;52218.38;5032558;28;20020;-72
2022/04/22 08:59:09;;;;;;;2.60;1.67;;;;;;;-140.72;100.00;52202.16;5038297;28;20139;-69
2022/04/22 09:01:37;;;;;;;4.47;1.75;;;;;;;-140.72;100.00;52258.97;5040389;28;20370;-71
2022/04/22 09:04:03;;;;;;;4.35;2.88;;;;;;;-140.72;100.00;52224.47;5077055;28;20036;-70
2022/04/22 09:06:30;;;;;;;2.72;1.63;;;;;;;-140.72;100.00;52216.34;5033049;28;20060;-69
2022/04/22 09:08:57;;;;;;;4.90;2.13;;;;;;;-140.72;100.00;52192.00;5073558;28;20026;-69
2022/04/22 09:11:23;;;;;;;3.80;1.83;;;;;;;-140.72;100.00;52189.97;5024607;28;20483;-69
2022/04/22 09:13:49;;;;;;;3.28;2.25;;;;;;;-140.72;100.00;52173.75;5047622;28;20032;-71
2022/04/22 09:16:21;;;;;;;3.40;2.00;;;;;;;-140.72;100.00;52133.16;5034773;28;20114;-71
2022/04/22 09:18:47;;;;;;;4.65;2.17;;;;;;;-140.72;100.00;52153.47;5062974;28;20036;-70
2022/04/22 09:21:17;;;;;;;3.05;1.15;;;;;;;-140.72;100.00;52123.03;5049796;28;20490;-69
2022/04/22 09:23:42;;;;;;;;;;;;;;;-140.72;100.00;52086.50;5020429;28;20090;-69
2022/04/22 09:26:22;;;;;;;2.13;1.33;;;;;;;-140.72;100.00;52155.50;5035318;28;20403;-71
2022/04/22 09:29:07;;;;;;;3.97;1.48;;;;;;;-140.72;100.00;52102.75;5032143;28;20401;-70
2022/04/22 09:31:46;;;;;;;3.60;1.65;;;;;;;-140.72;100.00;52070.28;5018654;28;20018;-69
2022/04/22 09:34:11;;;;;;;3.70;1.48;;;;;;;-140.72;100.00;52043.91;5077896;28;20371;-67
2022/04/22 09:44:55;;;;;;;3.50;1.85;;;;;;;-140.72;100.00;51989.13;5042091;28;20502;-70
2022/04/22 09:47:21;;;;;;;2.25;1.40;;;;;;;-140.72;100.00;52013.47;5036067;28;20060;-69
2022/04/22 09:49:47;;;;;;;1.45;0.90;;;;;;;-140.72;100.00;52035.78;5044303;28;20034;-71
2022/04/22 09:52:12;;;;;;;2.40;1.13;;;;;;;-140.72;100.00;52045.94;5025704;28;20025;-70
2022/04/22 09:54:39;;;;;;;2.30;1.20;;;;;;;-140.72;100.00;52003.31;5064308;28;20804;-68
2022/04/22 09:57:05;;;;;;;1.88;1.42;;;;;;;-140.72;100.00;51976.94;5029824;28;20026;-69
2022/04/22 09:59:32;;;;;;;2.47;1.55;;;;;;;-140.72;100.00;51985.06;5058843;28;20033;-68
2022/04/22 10:02:00;;;;;;;3.50;1.95;;;;;;;-140.72;100.00;52037.81;5050833;28;20052;-70
2022/04/22 10:04:27;;;;;;;2.10;1.35;;;;;;;-140.72;100.00;51978.97;5032405;28;20042;-68
2022/04/22 10:06:54;;;;;;;2.65;1.48;;;;;;;-140.72;100.00;52009.41;5028963;28;20061;-70
2022/04/22 10:09:20;;;;;;;1.33;0.90;;;;;;;-140.72;100.00;51985.06;5075823;28;20023;-68
2022/04/22 10:11:52;;;;;;;2.08;1.35;;;;;;;-140.72;100.00;51978.97;5062678;28;20488;-70
2022/04/22 10:14:38;;;;;;;3.33;1.67;;;;;;;-140.72;100.00;51985.06;5079412;28;20233;-69
2022/04/22 10:17:05;;;;;;;2.28;0.82;;;;;;;-140.72;100.00;51993.19;5049243;28;20026;-68
2022/04/22 10:19:35;;;;;;;1.92;1.05;;;;;;;-140.72;100.00;52005.34;5022361;28;20109;-69
2022/04/22 10:22:04;;;;;;;;;;;;;;;-140.72;100.00;51940.41;5033933;28;20075;-67
2022/04/22 10:24:31;;;;;;;1.85;1.02;;;;;;;-140.72;100.00;51956.66;5054990;28;20264;-68
2022/04/22 10:27:00;;;;;;;4.10;1.15;;;;;;;-140.72;100.00;51928.25;5044480;28;20026;-70
2022/04/22 10:29:26;;;;;;;2.22;1.20;;;;;;;-140.72;100.00;51944.47;4977942;28;20442;-68
2022/04/22 10:31:51;;;;;;;3.00;1.60;;;;;;;-140.72;100.00;51978.97;5071347;28;20034;-67
2022/04/22 10:34:17;;;;;;;1.75;0.82;;;;;;;-140.72;100.00;52017.53;5033255;28;20026;-68
2022/04/22 10:36:43;;;;;;;2.50;1.10;;;;;;;-140.72;100.00;51948.53;5035290;28;20023;-68
2022/04/22 10:39:09;;;;;;;2.15;1.58;;;;;;;-140.72;100.00;52029.69;5031358;28;20087;-68
2022/04/22 10:41:46;;;;;;;4.10;1.85;;;;;;;-140.72;100.00;52023.59;5071246;28;20028;-69
2022/04/22 10:47:13;;;;;;;3.10;2.08;;;;;;;-140.72;100.00;51978.97;5073994;28;20034;-69
2022/04/22 10:49:40;;;;;;;1.40;0.85;;;;;;;-140.72;100.00;51895.78;5030662;28;20034;-69
2022/04/22 10:52:13;;;;;;;2.28;1.60;;;;;;;-140.72;100.00;51981.00;5046059;28;20029;-69
2022/04/22 10:54:50;;;;;;;1.92;1.20;;;;;;;-140.72;100.00;52033.75;5081589;28;20024;-69
2022/04/22 10:57:18;;;;;;;1.90;1.00;;;;;;;-140.72;100.00;51928.25;5035116;28;20111;-68
2022/04/22 10:59:43;;;;;;;1.48;0.90;;;;;;;-140.72;100.00;51879.56;5095953;28;20240;-69
2022/04/22 11:02:30;;;;;;;1.42;0.77;;;;;;;-140.72;100.00;51863.31;5068400;28;20043;-71
2022/04/22 11:05:20;;;;;;;1.67;0.80;;;;;;;-140.72;100.00;51826.81;5037042;28;20116;-69
2022/04/22 11:07:53;;;;;;;1.13;0.80;;;;;;;-140.72;100.00;51832.91;5018328;28;20435;-69
2022/04/22 11:10:20;;;;;;;2.33;1.05;;;;;;;-140.72;100.00;51741.59;5050762;28;20067;-69
2022/04/22 11:12:58;;;;;;;2.08;1.00;;;;;;;-140.72;100.00;51861.28;5035171;28;20142;-68
2022/04/22 11:15:42;;;;;;;4.07;1.83;;;;;;;-140.72;100.00;51956.66;5064173;28;20023;-68
2022/04/22 11:18:10;;;;;;;2.67;0.95;;;;;;;-140.72;100.00;52005.34;5048210;28;20113;-71
2022/04/22 11:20:37;;;;;;;2.63;1.30;;;;;;;-140.72;100.00;52076.34;5009509;28;20034;-69
2022/04/22 11:23:04;;;;;;;1.98;1.17;;;;;;;-140.72;100.00;52066.22;5017137;28;20042;-68
2022/04/22 11:25:30;;;;;;;2.95;1.00;;;;;;;-140.72;100.00;52064.19;5009256;28;20034;-68
2022/04/22 11:27:56;;;;;;;1.80;1.35;;;;;;;-140.72;100.00;52098.69;5061808;28;20028;-68
2022/04/22 11:30:23;;;;;;;3.22;1.55;;;;;;;-140.72;100.00;52118.97;5097472;28;20031;-68
2022/04/22 11:32:52;;;;;;;3.70;0.98;;;;;;;-140.72;100.00;52021.56;4995821;28;20123;-68
2022/04/22 11:35:18;;;;;;;;;;;;;;;-140.72;100.00;51956.66;5001217;28;20026;-68
2022/04/22 11:37:43;;;;;;;1.38;0.82;;;;;;;-140.72;100.00;51891.72;4992404;28;19920;-70
2022/04/22 11:40:09;;;;;;;2.97;1.00;;;;;;;-140.72;100.00;51877.53;4994719;28;20447;-67
2022/04/22 11:42:43;;;;;;;3.08;0.88;;;;;;;-140.72;100.00;51832.91;4998309;28;20033;-68
2022/04/22 11:45:11;;;;;;;1.75;0.98;;;;;;;-140.72;100.00;51853.19;4997882;28;20034;-67
2022/04/22 11:47:37;;;;;;;2.17;1.05;;;;;;;-140.72;100.00;51895.78;5006330;28;20034;-67
2022/04/22 11:50:03;;;;;;;1.30;0.70;;;;;;;-140.72;100.00;51903.91;5025609;28;20526;-67
2022/04/22 11:52:31;;;;;;;1.55;0.80;;;;;;;-140.72;100.00;51936.38;5039009;28;20427;-68
2022/04/22 11:55:01;;;;;;;1.80;0.73;;;;;;;-140.72;100.00;51944.47;5074634;28;20028;-67
2022/04/22 11:57:27;;;;;;;1.45;0.80;;;;;;;-140.72;100.00;51928.25;5052695;28;20080;-68
2022/04/22 12:05:36;;;;;;;;;;;;;;;-140.72;100.00;52001.28;5043677;28;20358;-68
2022/04/22 12:08:04;;;;;;;1.17;0.90;;;;;;;-140.72;100.00;51920.13;5038650;28;19942;-68
2022/04/22 12:10:29;;;;;;;1.63;0.70;;;;;;;-140.72;100.00;51859.28;5095787;28;20032;-69